White Lake, Wisconsin
Current Conditions -  °F | °C
As of 9:35 PM on Monday 22 Dec 2014 (Local Time) from KAIG Reporting Station
Light Snow Light Snow  
Wind Chill: 19°   Ceiling: 700
Heat Index: 31°   Visibility: 1.7mi
Dew Point: 30°   Wind: 17mph
Humidity: 97%   Direction: 90°E
Pressure: 29.71"   Gusts: 21mph
Location:  45.16°N, 88.76°W
Report Text: KAIG 230335Z AUTO 09015G18KT 1 3/4SM -SN OVC007 M01/M01 A2971 RMK AO2 T10081012
Loading
Personal Weather Stations






























Interactive Weather Map New forecast layout! Learn more

10-Day Weather Forecast

Advertisements
Track Severe Weather on mobile